Kezdőlap
METAR-TAF:

METAR-TAF

Repülőterek :

Monroe Municipal Airport

Monroe, Wisconsin, Amerikai Egyesült Államok

földrajzi szélesség: 42-36-54N, földrajzi hosszúság: 089-35-27W, magasság: 331 m

Jelenlegi meteorológiai megfigyelések

A jelentés 23 perccel ezelõtt készült, 02:35 UTC
Dél-délkeleti szél 11 kt széllökések: 15 kt, kelet-délkeleti és déli között változik
Hőmérséklet 22°C
Páratartalom 83%
Légköri nyomás 1013 hPa
Látótávolság: 16.1 km
Derült ég

METAR: KEFT 270235Z AUTO 16011G15KT 120V180 10SM CLR 22/19 A2992 RMK AO2 T02230185

Idő: 21:58 (02:58 UTC)


TAF: hiányzik

Meteorológiai megfigyelések és előrejelzések több, mint 4000 repülőtéren (METAR és TAF jelentéseket).

A térképen piros és sárga pontok jelzik az elérhető meteorológiai állomásokat.

Mozgassa az egeret a pont fölött, hogy megjelenjen az állomás neve.

Azután kattintson az időjárási megfigyelések és előrejelzések megtekintéséhez.

A térkép megváltoztatása: kattintson a fekete keresztel jelölt zöld gombra ráközelítéshez, a vonallal jelölt zöld gombra távolításhoz, vagy a zöld nyilakra a szomszédos térképek eléréséhez.


METAR-TAF: